RYR210B LFOB-EGKK
Flight info
| Callsign | RYR210B |
|---|---|
| Flight time | 0h 37m |
| Altitude | 18000 |
| Route | OPALE T421 KUNAV |
| Aircraft | B38M/M-SDE1FGHILORVWXY/HB1 |
Departure
| Time | 2026-05-05 23:11 |
|---|---|
| Airport | Beauvais-Tillé airport (LFOB) |
Arrival
| Time | 2026-05-05 23:48 |
|---|---|
| Airport | London Gatwick Airport (EGKK) |
| Time | Latitude | Longitude | Altitude | Speed | Heading |
|---|---|---|---|---|---|
| 2026-05-05 22:50 | 49.45953 | 2.11513 | 363 ft | 0 kts | 312° |
| 2026-05-05 23:00 | 49.45943 | 2.11531 | 364 ft | 2 kts | 309° |
| 2026-05-05 23:00 | 49.45933 | 2.11552 | 363 ft | 2 kts | 303° |
| 2026-05-05 23:00 | 49.45925 | 2.11573 | 361 ft | 2 kts | 290° |
| 2026-05-05 23:01 | 49.45923 | 2.11598 | 361 ft | 2 kts | 250° |
| 2026-05-05 23:01 | 49.45930 | 2.11616 | 359 ft | 1 kts | 224° |
| 2026-05-05 23:01 | 49.45932 | 2.11618 | 363 ft | 0 kts | 223° |
| 2026-05-05 23:04 | 49.45929 | 2.11614 | 359 ft | 2 kts | 223° |
| 2026-05-05 23:04 | 49.45912 | 2.11590 | 364 ft | 5 kts | 223° |
| 2026-05-05 23:04 | 49.45880 | 2.11546 | 361 ft | 8 kts | 220° |
| 2026-05-05 23:05 | 49.45829 | 2.11493 | 364 ft | 9 kts | 200° |
| 2026-05-05 23:05 | 49.45777 | 2.11526 | 359 ft | 8 kts | 133° |
| 2026-05-05 23:05 | 49.45738 | 2.11589 | 360 ft | 8 kts | 138° |
| 2026-05-05 23:05 | 49.45689 | 2.11601 | 357 ft | 7 kts | 201° |
| 2026-05-05 23:06 | 49.45652 | 2.11553 | 360 ft | 8 kts | 223° |
| 2026-05-05 23:06 | 49.45605 | 2.11490 | 358 ft | 11 kts | 220° |
| 2026-05-05 23:06 | 49.45550 | 2.11416 | 354 ft | 12 kts | 221° |
| 2026-05-05 23:06 | 49.45478 | 2.11320 | 349 ft | 14 kts | 217° |
| 2026-05-05 23:07 | 49.45412 | 2.11330 | 361 ft | 8 kts | 127° |
| 2026-05-05 23:07 | 49.45377 | 2.11425 | 343 ft | 15 kts | 133° |
| 2026-05-05 23:07 | 49.45303 | 2.11595 | 339 ft | 25 kts | 124° |
| 2026-05-05 23:07 | 49.45191 | 2.11852 | 337 ft | 31 kts | 123° |
| 2026-05-05 23:08 | 49.45069 | 2.12134 | 329 ft | 32 kts | 127° |
| 2026-05-05 23:08 | 49.44942 | 2.12427 | 323 ft | 34 kts | 122° |
| 2026-05-05 23:08 | 49.44807 | 2.12733 | 318 ft | 35 kts | 126° |
| 2026-05-05 23:08 | 49.44698 | 2.12986 | 314 ft | 17 kts | 123° |
| 2026-05-05 23:09 | 49.44674 | 2.13127 | 312 ft | 15 kts | 96° |
| 2026-05-05 23:09 | 49.44664 | 2.13168 | 312 ft | 2 kts | 148° |
| 2026-05-05 23:09 | 49.44654 | 2.13171 | 311 ft | 1 kts | 188° |
| 2026-05-05 23:09 | 49.44635 | 2.13139 | 312 ft | 0 kts | 249° |
| 2026-05-05 23:10 | 49.44636 | 2.13138 | 312 ft | 0 kts | 259° |
| 2026-05-05 23:10 | 49.44645 | 2.13100 | 312 ft | 7 kts | 309° |
| 2026-05-05 23:10 | 49.44747 | 2.12875 | 315 ft | 61 kts | 304° |
| 2026-05-05 23:10 | 49.45140 | 2.11970 | 334 ft | 139 kts | 303° |
| 2026-05-05 23:11 | 49.45760 | 2.10477 | 663 ft | 183 kts | 307° |
| 2026-05-05 23:11 | 49.46486 | 2.08853 | 1679 ft | 170 kts | 311° |
| 2026-05-05 23:11 | 49.46705 | 2.08385 | 1971 ft | 149 kts | 310° |
| 2026-05-05 23:12 | 49.49719 | 2.04361 | 3423 ft | 186 kts | 349° |
| 2026-05-05 23:12 | 49.51000 | 2.04624 | 4357 ft | 186 kts | 26° |
| 2026-05-05 23:12 | 49.52209 | 2.05362 | 5289 ft | 192 kts | 18° |
| 2026-05-05 23:13 | 49.53538 | 2.05931 | 5990 ft | 205 kts | 18° |
| 2026-05-05 23:13 | 49.54963 | 2.06558 | 6631 ft | 221 kts | 18° |
| 2026-05-05 23:13 | 49.56560 | 2.06923 | 7136 ft | 250 kts | 356° |
| 2026-05-05 23:13 | 49.58223 | 2.06117 | 8233 ft | 248 kts | 340° |
| 2026-05-05 23:14 | 49.59826 | 2.05237 | 9456 ft | 246 kts | 344° |
| 2026-05-05 23:14 | 49.61477 | 2.04373 | 10325 ft | 256 kts | 343° |
| 2026-05-05 23:14 | 49.63185 | 2.03458 | 11221 ft | 261 kts | 342° |
| 2026-05-05 23:14 | 49.64917 | 2.02514 | 12125 ft | 267 kts | 341° |
| 2026-05-05 23:15 | 49.66683 | 2.01541 | 13028 ft | 273 kts | 341° |
| 2026-05-05 23:15 | 49.68492 | 2.00537 | 13913 ft | 279 kts | 341° |
| 2026-05-05 23:15 | 49.70334 | 1.99513 | 14774 ft | 283 kts | 340° |
| 2026-05-05 23:15 | 49.72190 | 1.98478 | 15673 ft | 285 kts | 340° |
| 2026-05-05 23:16 | 49.74069 | 1.97428 | 16538 ft | 288 kts | 340° |
| 2026-05-05 23:16 | 49.75969 | 1.96366 | 17374 ft | 292 kts | 340° |
| 2026-05-05 23:16 | 49.77908 | 1.95281 | 17809 ft | 298 kts | 340° |
| 2026-05-05 23:16 | 49.79848 | 1.94195 | 17847 ft | 296 kts | 340° |
| 2026-05-05 23:17 | 49.81781 | 1.93111 | 17877 ft | 296 kts | 340° |
| 2026-05-05 23:17 | 49.83714 | 1.92027 | 17874 ft | 295 kts | 340° |
| 2026-05-05 23:17 | 49.85656 | 1.90937 | 17878 ft | 299 kts | 340° |
| 2026-05-05 23:17 | 49.87674 | 1.89803 | 17881 ft | 317 kts | 340° |
| 2026-05-05 23:18 | 49.89774 | 1.88545 | 17844 ft | 334 kts | 333° |
| 2026-05-05 23:18 | 49.91709 | 1.86406 | 17859 ft | 349 kts | 319° |
| 2026-05-05 23:18 | 49.93643 | 1.83984 | 17846 ft | 367 kts | 321° |
| 2026-05-05 23:18 | 49.95693 | 1.81471 | 17852 ft | 384 kts | 321° |
| 2026-05-05 23:19 | 49.97827 | 1.78844 | 17846 ft | 396 kts | 321° |
| 2026-05-05 23:19 | 50.00003 | 1.76160 | 17860 ft | 401 kts | 321° |
| 2026-05-05 23:19 | 50.02193 | 1.73455 | 17879 ft | 403 kts | 321° |
| 2026-05-05 23:19 | 50.04385 | 1.70743 | 17887 ft | 403 kts | 321° |
| 2026-05-05 23:20 | 50.06546 | 1.68061 | 17888 ft | 403 kts | 320° |
| 2026-05-05 23:20 | 50.08688 | 1.65157 | 17890 ft | 403 kts | 318° |
| 2026-05-05 23:20 | 50.10762 | 1.62331 | 17893 ft | 403 kts | 319° |
| 2026-05-05 23:20 | 50.12873 | 1.59466 | 17897 ft | 403 kts | 319° |
| 2026-05-05 23:21 | 50.14994 | 1.56589 | 17899 ft | 403 kts | 319° |
| 2026-05-05 23:21 | 50.17095 | 1.53737 | 17898 ft | 403 kts | 319° |
| 2026-05-05 23:21 | 50.19250 | 1.50809 | 17903 ft | 404 kts | 319° |
| 2026-05-05 23:21 | 50.21371 | 1.47924 | 17903 ft | 404 kts | 319° |
| 2026-05-05 23:22 | 50.23481 | 1.45050 | 17909 ft | 404 kts | 319° |
| 2026-05-05 23:22 | 50.25592 | 1.42172 | 17912 ft | 404 kts | 319° |
| 2026-05-05 23:22 | 50.27721 | 1.39264 | 17915 ft | 404 kts | 319° |
| 2026-05-05 23:22 | 50.29895 | 1.36293 | 17919 ft | 404 kts | 319° |
| 2026-05-05 23:23 | 50.31970 | 1.33452 | 17915 ft | 404 kts | 319° |
| 2026-05-05 23:23 | 50.34088 | 1.30550 | 17923 ft | 404 kts | 319° |
| 2026-05-05 23:23 | 50.36208 | 1.27642 | 17922 ft | 404 kts | 319° |
| 2026-05-05 23:23 | 50.38288 | 1.24784 | 17917 ft | 404 kts | 319° |
| 2026-05-05 23:24 | 50.40411 | 1.21864 | 17928 ft | 404 kts | 318° |
| 2026-05-05 23:24 | 50.42522 | 1.18957 | 17908 ft | 404 kts | 319° |
| 2026-05-05 23:24 | 50.44654 | 1.16017 | 17924 ft | 404 kts | 319° |
| 2026-05-05 23:24 | 50.46770 | 1.13096 | 17923 ft | 404 kts | 319° |
| 2026-05-05 23:25 | 50.48916 | 1.10130 | 17925 ft | 404 kts | 319° |
| 2026-05-05 23:25 | 50.50985 | 1.07262 | 17924 ft | 404 kts | 317° |
| 2026-05-05 23:25 | 50.52368 | 1.05013 | 17946 ft | 404 kts | 311° |
| 2026-05-05 23:25 | 50.54245 | 1.01787 | 17927 ft | 404 kts | 313° |
| 2026-05-05 23:26 | 50.56169 | 0.98535 | 17927 ft | 404 kts | 313° |
| 2026-05-05 23:26 | 50.58058 | 0.95364 | 17994 ft | 385 kts | 313° |
| 2026-05-05 23:26 | 50.59895 | 0.92287 | 17790 ft | 384 kts | 313° |
| 2026-05-05 23:26 | 50.61725 | 0.89224 | 17379 ft | 383 kts | 313° |
| 2026-05-05 23:27 | 50.63543 | 0.86178 | 16923 ft | 380 kts | 313° |
| 2026-05-05 23:27 | 50.65343 | 0.83162 | 16423 ft | 378 kts | 313° |
| 2026-05-05 23:27 | 50.67133 | 0.80145 | 15960 ft | 374 kts | 312° |
| 2026-05-05 23:27 | 50.68774 | 0.76948 | 15376 ft | 373 kts | 309° |
| 2026-05-05 23:28 | 50.70363 | 0.73808 | 14900 ft | 369 kts | 309° |
| 2026-05-05 23:28 | 50.71987 | 0.70626 | 14403 ft | 365 kts | 309° |
| 2026-05-05 23:28 | 50.73557 | 0.67562 | 13901 ft | 362 kts | 309° |
| 2026-05-05 23:28 | 50.75141 | 0.64471 | 13346 ft | 359 kts | 309° |
| 2026-05-05 23:29 | 50.76701 | 0.61425 | 12805 ft | 356 kts | 309° |
| 2026-05-05 23:29 | 50.78251 | 0.58398 | 12303 ft | 351 kts | 309° |
| 2026-05-05 23:29 | 50.79779 | 0.55410 | 11816 ft | 347 kts | 309° |
| 2026-05-05 23:29 | 50.81289 | 0.52453 | 11327 ft | 343 kts | 309° |
| 2026-05-05 23:30 | 50.82778 | 0.49524 | 10804 ft | 340 kts | 309° |
| 2026-05-05 23:30 | 50.84251 | 0.46612 | 10320 ft | 337 kts | 309° |
| 2026-05-05 23:30 | 50.85705 | 0.43738 | 9885 ft | 333 kts | 309° |
| 2026-05-05 23:30 | 50.87130 | 0.40917 | 9390 ft | 330 kts | 309° |
| 2026-05-05 23:31 | 50.88552 | 0.38101 | 8915 ft | 326 kts | 309° |
| 2026-05-05 23:31 | 50.89952 | 0.35324 | 8469 ft | 318 kts | 309° |
| 2026-05-05 23:31 | 50.91296 | 0.32658 | 8073 ft | 301 kts | 310° |
| 2026-05-05 23:31 | 50.92572 | 0.30121 | 7677 ft | 287 kts | 310° |
| 2026-05-05 23:32 | 50.93789 | 0.27701 | 7289 ft | 274 kts | 310° |
| 2026-05-05 23:32 | 50.94950 | 0.25372 | 6874 ft | 265 kts | 309° |
| 2026-05-05 23:32 | 50.96057 | 0.23121 | 6379 ft | 252 kts | 309° |
| 2026-05-05 23:32 | 50.97105 | 0.20995 | 5903 ft | 238 kts | 309° |
| 2026-05-05 23:33 | 50.98100 | 0.18973 | 5475 ft | 226 kts | 310° |
| 2026-05-05 23:33 | 50.99045 | 0.17054 | 5063 ft | 217 kts | 310° |
| 2026-05-05 23:33 | 50.99959 | 0.15196 | 4661 ft | 209 kts | 310° |
| 2026-05-05 23:33 | 51.00835 | 0.13413 | 4250 ft | 199 kts | 310° |
| 2026-05-05 23:34 | 51.01563 | 0.11667 | 3976 ft | 189 kts | 292° |
| 2026-05-05 23:34 | 51.01749 | 0.09557 | 3937 ft | 201 kts | 276° |
| 2026-05-05 23:34 | 51.01861 | 0.07220 | 3877 ft | 218 kts | 277° |
| 2026-05-05 23:34 | 51.01978 | 0.04738 | 3813 ft | 229 kts | 277° |
| 2026-05-05 23:35 | 51.02095 | 0.02188 | 3765 ft | 234 kts | 276° |
| 2026-05-05 23:35 | 51.02211 | -0.00399 | 3715 ft | 234 kts | 276° |
| 2026-05-05 23:35 | 51.02325 | -0.02979 | 3671 ft | 235 kts | 276° |
| 2026-05-05 23:35 | 51.02439 | -0.05565 | 3619 ft | 234 kts | 276° |
| 2026-05-05 23:36 | 51.02551 | -0.08148 | 3562 ft | 234 kts | 276° |
| 2026-05-05 23:36 | 51.02662 | -0.10731 | 3517 ft | 235 kts | 276° |
| 2026-05-05 23:36 | 51.02773 | -0.13329 | 3459 ft | 235 kts | 276° |
| 2026-05-05 23:36 | 51.02882 | -0.15885 | 3403 ft | 235 kts | 276° |
| 2026-05-05 23:37 | 51.02993 | -0.18476 | 3349 ft | 233 kts | 276° |
| 2026-05-05 23:37 | 51.03097 | -0.20977 | 3315 ft | 214 kts | 276° |
| 2026-05-05 23:37 | 51.03194 | -0.23267 | 3273 ft | 211 kts | 276° |
| 2026-05-05 23:37 | 51.03292 | -0.25620 | 3216 ft | 214 kts | 276° |
| 2026-05-05 23:38 | 51.03390 | -0.27974 | 3152 ft | 214 kts | 276° |
| 2026-05-05 23:38 | 51.03488 | -0.30332 | 3049 ft | 214 kts | 276° |
| 2026-05-05 23:38 | 51.03587 | -0.32714 | 2995 ft | 214 kts | 276° |
| 2026-05-05 23:38 | 51.03684 | -0.35063 | 2995 ft | 213 kts | 276° |
| 2026-05-05 23:39 | 51.03778 | -0.37428 | 3004 ft | 215 kts | 276° |
| 2026-05-05 23:39 | 51.03871 | -0.39794 | 2997 ft | 215 kts | 276° |
| 2026-05-05 23:39 | 51.03965 | -0.42158 | 3007 ft | 214 kts | 276° |
| 2026-05-05 23:39 | 51.04057 | -0.44519 | 3006 ft | 215 kts | 275° |
| 2026-05-05 23:40 | 51.04151 | -0.46891 | 3004 ft | 214 kts | 276° |
| 2026-05-05 23:40 | 51.04261 | -0.49254 | 2993 ft | 214 kts | 281° |
| 2026-05-05 23:40 | 51.04908 | -0.51282 | 2955 ft | 205 kts | 321° |
| 2026-05-05 23:40 | 51.05700 | -0.51996 | 2982 ft | 191 kts | 346° |
| 2026-05-05 23:41 | 51.09095 | -0.51604 | 3074 ft | 154 kts | 31° |
| 2026-05-05 23:41 | 51.09994 | -0.50669 | 3042 ft | 157 kts | 45° |
| 2026-05-05 23:42 | 51.10411 | -0.49106 | 2987 ft | 148 kts | 75° |
| 2026-05-05 23:42 | 51.10742 | -0.47485 | 3061 ft | 154 kts | 70° |
| 2026-05-05 23:42 | 51.11033 | -0.45940 | 2989 ft | 141 kts | 73° |
| 2026-05-05 23:42 | 51.11269 | -0.44456 | 2964 ft | 137 kts | 74° |
| 2026-05-05 23:43 | 51.11486 | -0.42979 | 2974 ft | 137 kts | 75° |
| 2026-05-05 23:43 | 51.11695 | -0.41505 | 2818 ft | 136 kts | 74° |
| 2026-05-05 23:43 | 51.11901 | -0.40040 | 2646 ft | 135 kts | 75° |
| 2026-05-05 23:43 | 51.12103 | -0.38591 | 2474 ft | 134 kts | 75° |
| 2026-05-05 23:44 | 51.12303 | -0.37144 | 2300 ft | 133 kts | 75° |
| 2026-05-05 23:44 | 51.12502 | -0.35706 | 2127 ft | 133 kts | 75° |
| 2026-05-05 23:44 | 51.12701 | -0.34278 | 1948 ft | 132 kts | 75° |
| 2026-05-05 23:44 | 51.12765 | -0.33817 | 1894 ft | 132 kts | 75° |
| 2026-05-05 23:45 | 51.13452 | -0.28844 | 1271 ft | 131 kts | 75° |
| 2026-05-05 23:45 | 51.13494 | -0.28541 | 1227 ft | 132 kts | 75° |
| 2026-05-05 23:47 | 51.13595 | -0.27815 | 1129 ft | 132 kts | 75° |
| 2026-05-05 23:47 | 51.13793 | -0.26381 | 950 ft | 134 kts | 75° |
| 2026-05-05 23:47 | 51.13994 | -0.24935 | 770 ft | 134 kts | 76° |
| 2026-05-05 23:47 | 51.14196 | -0.23477 | 590 ft | 134 kts | 75° |
| 2026-05-05 23:48 | 51.14396 | -0.22020 | 413 ft | 135 kts | 75° |
| 2026-05-05 23:48 | 51.14599 | -0.20572 | 249 ft | 134 kts | 75° |
| 2026-05-05 23:48 | 51.14791 | -0.19238 | 212 ft | 99 kts | 78° |
| 2026-05-05 23:48 | 51.14896 | -0.18617 | 208 ft | 24 kts | 53° |
| 2026-05-05 23:49 | 51.15015 | -0.18372 | 212 ft | 30 kts | 52° |
| 2026-05-05 23:49 | 51.15127 | -0.18083 | 211 ft | 32 kts | 81° |
| 2026-05-05 23:49 | 51.15178 | -0.17728 | 210 ft | 34 kts | 79° |
| 2026-05-05 23:49 | 51.15232 | -0.17357 | 216 ft | 35 kts | 77° |
| 2026-05-05 23:50 | 51.15284 | -0.16961 | 207 ft | 37 kts | 77° |
| 2026-05-05 23:50 | 51.15309 | -0.16789 | 210 ft | 1 kts | 77° |
| 2026-05-05 23:50 | 51.15314 | -0.16753 | 207 ft | 5 kts | 78° |
| 2026-05-05 23:50 | 51.15316 | -0.16699 | 213 ft | 0 kts | 108° |
| 2026-05-05 23:51 | 51.15308 | -0.16687 | 210 ft | 3 kts | 139° |
| 2026-05-05 23:51 | 51.15284 | -0.16640 | 214 ft | 7 kts | 101° |
| 2026-05-05 23:51 | 51.15294 | -0.16547 | 211 ft | 10 kts | 79° |
| 2026-05-05 23:51 | 51.15309 | -0.16406 | 210 ft | 15 kts | 80° |
| 2026-05-05 23:52 | 51.15318 | -0.16330 | 211 ft | 5 kts | 78° |